Burntsand — CFK9232 — position and weather

sailwx.info

Track history (hours):
 
Tides and Currents Weather Stations Pressure Air Temp Water Temp Dewpoint Dewpoint Depression Visibility Wind Speed Wind Dir Waves Ship Positions

Burntsand

Last reported at 2017-Sep-27 23:59 UTC. Time now 2017-Oct-20 01:16 UTC.
Position N 33°37' W 117°55'.
Warning: this ship's position is 22 days out of date.

Length 19 m; draft 2 m.

Type: Pleasure craft. MMSI: 316010143.

Date/timePositionNaut miles runAvg speedWind from/ knotsBaromVisibWave heightAir tempDewpointWater temp
2017-Sep-27 23:59N 33°37' W 117°55'1 1.6
2017-Sep-27 23:30N 33°37' W 117°54'1 3.0
2017-Sep-27 23:00N 33°35' W 117°54'5 9.6
2017-Sep-27 22:30N 33°36' W 117°59'510.0
2017-Sep-27 22:00N 33°37' W 118°05'510.3
2017-Sep-27 21:30N 33°39' W 118°11'5 9.9
2017-Sep-27 21:00N 33°41' W 118°16'5 9.5
2017-Sep-27 20:30N 33°43' W 118°22'5 9.1
2017-Sep-27 19:59N 33°46' W 118°26'12 9.5
2017-Sep-27 18:45N 33°57' W 118°28'2 1.9
2017-Sep-27 17:48N 33°59' W 118°27'0 0.0
2017-Sep-27 17:29N 33°59' W 118°27'0 0.0
2017-Sep-27 00:47N 33°59' W 118°27'8 5.4
2017-Sep-26 23:19N 33°58' W 118°36'3 9.8
2017-Sep-26 23:00N 33°58' W 118°40'5 9.6
2017-Sep-26 22:28N 33°58' W 118°46'4 9.4
2017-Sep-26 22:00N 33°59' W 118°51'5 9.3
2017-Sep-26 21:30N 34°00' W 118°57'4 9.0
2017-Sep-26 21:00N 34°02' W 119°02'5 9.1
2017-Sep-26 20:30N 34°03' W 119°07'5 8.8
2017-Sep-26 19:58N 34°05' W 119°12'4 8.4
2017-Sep-26 19:30N 34°07' W 119°16'4 8.6
2017-Sep-26 19:00N 34°10' W 119°20'4 8.8
2017-Sep-26 18:30N 34°13' W 119°24'5 9.4
2017-Sep-26 18:00N 34°17' W 119°27'5 9.4
2017-Sep-26 17:28N 34°21' W 119°31'4 9.1
2017-Sep-26 17:00N 34°23' W 119°36'5 9.1
2017-Sep-26 16:30N 34°24' W 119°41'0 0.4
2017-Sep-26 15:57N 34°24' W 119°41'0 0.0
2017-Sep-26 15:29N 34°24' W 119°41'0 0.0
2017-Sep-26 15:00N 34°24' W 119°41'0 0.0
2017-Sep-26 01:44N 34°24' W 119°41'0 0.2
2017-Sep-26 01:28N 34°24' W 119°41'0 0.3
2017-Sep-26 00:59N 34°24' W 119°42'2 3.1
2017-Sep-26 00:29N 34°23' W 119°43'4 9.0
2017-Sep-26 00:00N 34°23' W 119°48'5 9.4
2017-Sep-25 23:28N 34°23' W 119°54'4 9.4
2017-Sep-25 23:00N 34°23' W 119°59'5 9.4
2017-Sep-25 22:30N 34°25' W 120°05'5 9.4
2017-Sep-25 22:00N 34°25' W 120°10'5 9.3
2017-Sep-25 21:29N 34°25' W 120°16'5 9.4
2017-Sep-25 21:00N 34°24' W 120°22'5 9.3
2017-Sep-25 20:30N 34°25' W 120°27'4 8.9
2017-Sep-25 20:00N 34°27' W 120°32'5 9.3
2017-Sep-25 19:30N 34°29' W 120°37'4 9.2
2017-Sep-25 19:00N 34°32' W 120°41'4 8.5
2017-Sep-25 18:30N 34°36' W 120°42'4 8.9
2017-Sep-25 18:00N 34°41' W 120°44'5 9.5
2017-Sep-25 17:30N 34°45' W 120°45'5 9.5
2017-Sep-25 17:00N 34°50' W 120°47'5 9.8
2017-Sep-25 16:30N 34°55' W 120°49'5 9.5
2017-Sep-25 16:00N 34°59' W 120°50'5 9.6
2017-Sep-25 15:29N 35°04' W 120°52'5 9.4
2017-Sep-25 15:00N 35°08' W 120°53'5 9.3
2017-Sep-25 14:30N 35°13' W 120°54'97 3.9
2017-Sep-24 13:19N 36°38' W 121°54'1 4.0
2017-Sep-24 13:00N 36°36' W 121°54'0 0.0
2017-Sep-24 12:30N 36°36' W 121°54'0 0.0
2017-Sep-24 12:00N 36°36' W 121°54'0 0.0
2017-Sep-24 11:30N 36°37' W 121°54'0 0.0
2017-Sep-24 11:00N 36°36' W 121°54'0 0.0
2017-Sep-24 10:30N 36°36' W 121°54'0 0.0
2017-Sep-24 10:00N 36°36' W 121°54'0 0.0
2017-Sep-24 09:30N 36°36' W 121°54'0 0.0
2017-Sep-24 09:00N 36°37' W 121°54'0 0.0
2017-Sep-24 08:30N 36°36' W 121°54'0 0.0
2017-Sep-24 08:00N 36°36' W 121°54'0 0.0
2017-Sep-24 07:30N 36°36' W 121°54'0 0.0
2017-Sep-24 07:00N 36°36' W 121°54'0 0.0
2017-Sep-24 06:30N 36°37' W 121°54'0 0.0
2017-Sep-24 06:00N 36°36' W 121°54'0 0.0
2017-Sep-24 05:30N 36°36' W 121°54'0 0.0
2017-Sep-24 05:00N 36°36' W 121°54'0 0.0
2017-Sep-24 04:30N 36°36' W 121°54'0 0.0
2017-Sep-24 04:00N 36°36' W 121°54'0 0.0
2017-Sep-23 23:28N 36°36' W 121°54'1 1.8
2017-Sep-23 23:00N 36°37' W 121°54'  
Track history (hours):
 
Tides and Currents Weather Stations Pressure Air Temp Water Temp Dewpoint Dewpoint Depression Visibility Wind Speed Wind Dir Waves Ship Positions

Burntsand

Last reported at 2017-Sep-27 23:59 UTC. Time now 2017-Oct-20 01:16 UTC.
Position N 33°37' W 117°55'.
Warning: this ship's position is 22 days out of date.

Length 19 m; draft 2 m.

Type: Pleasure craft. MMSI: 316010143.

Date/timePositionNaut miles runAvg speedWind from/ knotsBaromVisibWave heightAir tempDewpointWater temp
2017-Sep-27 23:59N 33°37' W 117°55'1 1.6
2017-Sep-27 23:30N 33°37' W 117°54'1 3.0
2017-Sep-27 23:00N 33°35' W 117°54'5 9.6
2017-Sep-27 22:30N 33°36' W 117°59'510.0
2017-Sep-27 22:00N 33°37' W 118°05'510.3
2017-Sep-27 21:30N 33°39' W 118°11'5 9.9
2017-Sep-27 21:00N 33°41' W 118°16'5 9.5
2017-Sep-27 20:30N 33°43' W 118°22'5 9.1
2017-Sep-27 19:59N 33°46' W 118°26'12 9.5
2017-Sep-27 18:45N 33°57' W 118°28'2 1.9
2017-Sep-27 17:48N 33°59' W 118°27'0 0.0
2017-Sep-27 17:29N 33°59' W 118°27'0 0.0
2017-Sep-27 00:47N 33°59' W 118°27'8 5.4
2017-Sep-26 23:19N 33°58' W 118°36'3 9.8
2017-Sep-26 23:00N 33°58' W 118°40'5 9.6
2017-Sep-26 22:28N 33°58' W 118°46'4 9.4
2017-Sep-26 22:00N 33°59' W 118°51'5 9.3
2017-Sep-26 21:30N 34°00' W 118°57'4 9.0
2017-Sep-26 21:00N 34°02' W 119°02'5 9.1
2017-Sep-26 20:30N 34°03' W 119°07'5 8.8
2017-Sep-26 19:58N 34°05' W 119°12'4 8.4
2017-Sep-26 19:30N 34°07' W 119°16'4 8.6
2017-Sep-26 19:00N 34°10' W 119°20'4 8.8
2017-Sep-26 18:30N 34°13' W 119°24'5 9.4
2017-Sep-26 18:00N 34°17' W 119°27'5 9.4
2017-Sep-26 17:28N 34°21' W 119°31'4 9.1
2017-Sep-26 17:00N 34°23' W 119°36'5 9.1
2017-Sep-26 16:30N 34°24' W 119°41'0 0.4
2017-Sep-26 15:57N 34°24' W 119°41'0 0.0
2017-Sep-26 15:29N 34°24' W 119°41'0 0.0
2017-Sep-26 15:00N 34°24' W 119°41'0 0.0
2017-Sep-26 01:44N 34°24' W 119°41'0 0.2
2017-Sep-26 01:28N 34°24' W 119°41'0 0.3
2017-Sep-26 00:59N 34°24' W 119°42'2 3.1
2017-Sep-26 00:29N 34°23' W 119°43'4 9.0
2017-Sep-26 00:00N 34°23' W 119°48'5 9.4
2017-Sep-25 23:28N 34°23' W 119°54'4 9.4
2017-Sep-25 23:00N 34°23' W 119°59'5 9.4
2017-Sep-25 22:30N 34°25' W 120°05'5 9.4
2017-Sep-25 22:00N 34°25' W 120°10'5 9.3
2017-Sep-25 21:29N 34°25' W 120°16'5 9.4
2017-Sep-25 21:00N 34°24' W 120°22'5 9.3
2017-Sep-25 20:30N 34°25' W 120°27'4 8.9
2017-Sep-25 20:00N 34°27' W 120°32'5 9.3
2017-Sep-25 19:30N 34°29' W 120°37'4 9.2
2017-Sep-25 19:00N 34°32' W 120°41'4 8.5
2017-Sep-25 18:30N 34°36' W 120°42'4 8.9
2017-Sep-25 18:00N 34°41' W 120°44'5 9.5
2017-Sep-25 17:30N 34°45' W 120°45'5 9.5
2017-Sep-25 17:00N 34°50' W 120°47'5 9.8
2017-Sep-25 16:30N 34°55' W 120°49'5 9.5
2017-Sep-25 16:00N 34°59' W 120°50'5 9.6
2017-Sep-25 15:29N 35°04' W 120°52'5 9.4
2017-Sep-25 15:00N 35°08' W 120°53'5 9.3
2017-Sep-25 14:30N 35°13' W 120°54'97 3.9
2017-Sep-24 13:19N 36°38' W 121°54'1 4.0
2017-Sep-24 13:00N 36°36' W 121°54'0 0.0
2017-Sep-24 12:30N 36°36' W 121°54'0 0.0
2017-Sep-24 12:00N 36°36' W 121°54'0 0.0
2017-Sep-24 11:30N 36°37' W 121°54'0 0.0
2017-Sep-24 11:00N 36°36' W 121°54'0 0.0
2017-Sep-24 10:30N 36°36' W 121°54'0 0.0
2017-Sep-24 10:00N 36°36' W 121°54'0 0.0
2017-Sep-24 09:30N 36°36' W 121°54'0 0.0
2017-Sep-24 09:00N 36°37' W 121°54'0 0.0
2017-Sep-24 08:30N 36°36' W 121°54'0 0.0
2017-Sep-24 08:00N 36°36' W 121°54'0 0.0
2017-Sep-24 07:30N 36°36' W 121°54'0 0.0
2017-Sep-24 07:00N 36°36' W 121°54'0 0.0
2017-Sep-24 06:30N 36°37' W 121°54'0 0.0
2017-Sep-24 06:00N 36°36' W 121°54'0 0.0
2017-Sep-24 05:30N 36°36' W 121°54'0 0.0
2017-Sep-24 05:00N 36°36' W 121°54'0 0.0
2017-Sep-24 04:30N 36°36' W 121°54'0 0.0
2017-Sep-24 04:00N 36°36' W 121°54'0 0.0
2017-Sep-23 23:28N 36°36' W 121°54'1 1.8
2017-Sep-23 23:00N 36°37' W 121°54'  

Dump ship's entire track history